sensor_id;sensor_type;location;lat;lon;timestamp;pressure;altitude;pressure_sealevel;temperature;humidity
72024;BME280;59889;50.700;5.440;2024-02-23T00:01:41;97579.29;;;20.72;35.23
72024;BME280;59889;50.700;5.440;2024-02-23T00:04:06;97580.43;;;20.83;35.08
72024;BME280;59889;50.700;5.440;2024-02-23T00:06:31;97591.77;;;20.77;35.15
72024;BME280;59889;50.700;5.440;2024-02-23T00:08:56;97596.12;;;20.83;35.05
72024;BME280;59889;50.700;5.440;2024-02-23T00:11:21;97603.46;;;20.73;35.20
72024;BME280;59889;50.700;5.440;2024-02-23T00:13:46;97606.87;;;20.80;35.10
72024;BME280;59889;50.700;5.440;2024-02-23T00:16:11;97610.44;;;20.79;35.11
72024;BME280;59889;50.700;5.440;2024-02-23T00:18:36;97600.80;;;20.71;35.18
72024;BME280;59889;50.700;5.440;2024-02-23T00:21:01;97598.48;;;20.75;35.16
72024;BME280;59889;50.700;5.440;2024-02-23T00:23:26;97596.38;;;20.79;35.07
72024;BME280;59889;50.700;5.440;2024-02-23T00:25:51;97604.19;;;20.76;35.11
72024;BME280;59889;50.700;5.440;2024-02-23T00:28:16;97605.67;;;20.99;35.13
72024;BME280;59889;50.700;5.440;2024-02-23T00:30:41;97608.83;;;20.97;35.14
72024;BME280;59889;50.700;5.440;2024-02-23T00:33:06;97609.84;;;20.79;35.07
72024;BME280;59889;50.700;5.440;2024-02-23T00:35:31;97610.79;;;20.84;35.01
72024;BME280;59889;50.700;5.440;2024-02-23T00:37:56;97621.76;;;20.74;35.14
72024;BME280;59889;50.700;5.440;2024-02-23T00:40:21;97627.48;;;20.99;35.11
72024;BME280;59889;50.700;5.440;2024-02-23T00:42:46;97631.81;;;20.83;35.02
72024;BME280;59889;50.700;5.440;2024-02-23T00:45:12;97629.02;;;20.75;35.12
72024;BME280;59889;50.700;5.440;2024-02-23T00:47:37;97627.05;;;20.77;35.08
72024;BME280;59889;50.700;5.440;2024-02-23T00:50:02;97625.81;;;20.70;35.14
72024;BME280;59889;50.700;5.440;2024-02-23T00:52:27;97628.23;;;20.73;35.12
72024;BME280;59889;50.700;5.440;2024-02-23T00:54:52;97630.59;;;20.68;35.18
72024;BME280;59889;50.700;5.440;2024-02-23T00:57:17;97633.55;;;20.70;35.15
72024;BME280;59889;50.700;5.440;2024-02-23T00:59:42;97629.38;;;21.16;35.13
72024;BME280;59889;50.700;5.440;2024-02-23T01:02:07;97631.82;;;20.64;35.19
72024;BME280;59889;50.700;5.440;2024-02-23T01:04:32;97632.78;;;20.45;35.12
72024;BME280;59889;50.700;5.440;2024-02-23T01:06:58;97640.34;;;21.17;35.12
72024;BME280;59889;50.700;5.440;2024-02-23T01:09:22;97642.17;;;20.64;35.18
72024;BME280;59889;50.700;5.440;2024-02-23T01:11:48;97641.36;;;20.63;35.18
72024;BME280;59889;50.700;5.440;2024-02-23T01:14:13;97647.51;;;20.45;35.11
72024;BME280;59889;50.700;5.440;2024-02-23T01:16:38;97643.09;;;20.65;35.18
72024;BME280;59889;50.700;5.440;2024-02-23T01:19:03;97646.50;;;20.40;35.16
72024;BME280;59889;50.700;5.440;2024-02-23T01:21:28;97649.53;;;20.83;35.22
72024;BME280;59889;50.700;5.440;2024-02-23T01:23:53;97653.31;;;20.87;35.18
72024;BME280;59889;50.700;5.440;2024-02-23T01:26:18;97662.52;;;20.94;35.08
72024;BME280;59889;50.700;5.440;2024-02-23T01:28:43;97667.43;;;20.67;35.12
72024;BME280;59889;50.700;5.440;2024-02-23T01:31:08;97662.27;;;20.64;35.17
72024;BME280;59889;50.700;5.440;2024-02-23T01:33:33;97660.15;;;20.64;35.15
72024;BME280;59889;50.700;5.440;2024-02-23T01:35:58;97667.22;;;21.10;35.18
72024;BME280;59889;50.700;5.440;2024-02-23T01:38:23;97661.78;;;20.63;35.15
72024;BME280;59889;50.700;5.440;2024-02-23T01:40:48;97663.53;;;20.67;35.11
72024;BME280;59889;50.700;5.440;2024-02-23T01:43:13;97657.93;;;20.58;35.21
72024;BME280;59889;50.700;5.440;2024-02-23T01:45:38;97657.75;;;20.71;35.06
72024;BME280;59889;50.700;5.440;2024-02-23T01:48:04;97657.86;;;20.68;35.11
72024;BME280;59889;50.700;5.440;2024-02-23T01:50:29;97649.78;;;20.62;35.17
72024;BME280;59889;50.700;5.440;2024-02-23T01:52:56;97652.37;;;20.58;35.19
72024;BME280;59889;50.700;5.440;2024-02-23T01:55:19;97655.88;;;20.60;35.19
72024;BME280;59889;50.700;5.440;2024-02-23T01:57:44;97663.62;;;20.71;35.05
72024;BME280;59889;50.700;5.440;2024-02-23T02:00:10;97664.85;;;20.67;35.10
72024;BME280;59889;50.700;5.440;2024-02-23T02:02:33;97663.86;;;20.68;35.07
72024;BME280;59889;50.700;5.440;2024-02-23T02:04:58;97667.22;;;20.59;35.18
72024;BME280;59889;50.700;5.440;2024-02-23T02:07:23;97672.80;;;21.11;35.14
72024;BME280;59889;50.700;5.440;2024-02-23T02:09:48;97679.04;;;20.66;35.10
72024;BME280;59889;50.700;5.440;2024-02-23T02:12:13;97677.72;;;20.59;35.20
72024;BME280;59889;50.700;5.440;2024-02-23T02:14:38;97675.51;;;20.80;35.23
72024;BME280;59889;50.700;5.440;2024-02-23T02:17:03;97675.26;;;20.80;35.23
72024;BME280;59889;50.700;5.440;2024-02-23T02:19:28;97676.56;;;20.65;35.11
72024;BME280;59889;50.700;5.440;2024-02-23T02:21:53;97681.46;;;20.53;35.22
72024;BME280;59889;50.700;5.440;2024-02-23T02:24:18;97680.67;;;20.56;35.17
72024;BME280;59889;50.700;5.440;2024-02-23T02:26:43;97673.12;;;20.60;35.13
72024;BME280;59889;50.700;5.440;2024-02-23T02:29:09;97672.88;;;20.75;35.26
72024;BME280;59889;50.700;5.440;2024-02-23T02:31:33;97673.52;;;20.57;35.18
72024;BME280;59889;50.700;5.440;2024-02-23T02:33:59;97681.21;;;20.79;35.21
72024;BME280;59889;50.700;5.440;2024-02-23T02:36:24;97678.51;;;20.56;35.20
72024;BME280;59889;50.700;5.440;2024-02-23T02:38:49;97682.00;;;20.53;35.22
72024;BME280;59889;50.700;5.440;2024-02-23T02:41:14;97682.32;;;20.53;35.22
72024;BME280;59889;50.700;5.440;2024-02-23T02:43:39;97682.48;;;20.52;35.22
72024;BME280;59889;50.700;5.440;2024-02-23T02:46:04;97681.56;;;20.33;35.19
72024;BME280;59889;50.700;5.440;2024-02-23T02:48:29;97683.00;;;20.70;35.30
72024;BME280;59889;50.700;5.440;2024-02-23T02:50:59;97678.71;;;20.46;35.32
72024;BME280;59889;50.700;5.440;2024-02-23T02:53:19;97671.31;;;20.85;35.10
72024;BME280;59889;50.700;5.440;2024-02-23T02:55:44;97671.58;;;20.56;35.17
72024;BME280;59889;50.700;5.440;2024-02-23T02:58:09;97675.28;;;21.10;35.10
72024;BME280;59889;50.700;5.440;2024-02-23T03:00:34;97664.14;;;20.50;35.22
72024;BME280;59889;50.700;5.440;2024-02-23T03:02:59;97669.89;;;20.29;35.20
72024;BME280;59889;50.700;5.440;2024-02-23T03:05:24;97670.27;;;20.60;35.10
72024;BME280;59889;50.700;5.440;2024-02-23T03:07:49;97675.79;;;20.55;35.15
72024;BME280;59889;50.700;5.440;2024-02-23T03:10:14;97680.63;;;20.52;35.17
72024;BME280;59889;50.700;5.440;2024-02-23T03:12:39;97677.08;;;20.62;35.10
72024;BME280;59889;50.700;5.440;2024-02-23T03:15:05;97678.41;;;20.52;35.19
72024;BME280;59889;50.700;5.440;2024-02-23T03:17:29;97683.69;;;20.74;35.23
72024;BME280;59889;50.700;5.440;2024-02-23T03:19:54;97679.51;;;20.78;35.18
72024;BME280;59889;50.700;5.440;2024-02-23T03:22:19;97679.37;;;20.30;35.17
72024;BME280;59889;50.700;5.440;2024-02-23T03:24:44;97678.89;;;20.50;35.21
72024;BME280;59889;50.700;5.440;2024-02-23T03:27:09;97680.98;;;20.51;35.20
72024;BME280;59889;50.700;5.440;2024-02-23T03:29:34;97683.77;;;20.52;35.18
72024;BME280;59889;50.700;5.440;2024-02-23T03:32:00;97682.09;;;20.49;35.23
72024;BME280;59889;50.700;5.440;2024-02-23T03:34:24;97678.11;;;20.46;35.25
72024;BME280;59889;50.700;5.440;2024-02-23T03:36:49;97678.47;;;20.46;35.24
72024;BME280;59889;50.700;5.440;2024-02-23T03:39:14;97678.75;;;20.74;35.17
72024;BME280;59889;50.700;5.440;2024-02-23T03:41:40;97679.98;;;20.50;35.23
72024;BME280;59889;50.700;5.440;2024-02-23T03:44:04;97686.18;;;20.67;35.28
72024;BME280;59889;50.700;5.440;2024-02-23T03:46:29;97687.14;;;20.43;35.26
72024;BME280;59889;50.700;5.440;2024-02-23T03:48:55;97682.60;;;20.50;35.19
72024;BME280;59889;50.700;5.440;2024-02-23T03:51:20;97678.61;;;20.50;35.18
72024;BME280;59889;50.700;5.440;2024-02-23T03:53:45;97681.79;;;20.70;35.25
72024;BME280;59889;50.700;5.440;2024-02-23T03:56:10;97681.06;;;20.50;35.19
72024;BME280;59889;50.700;5.440;2024-02-23T03:58:35;97681.17;;;20.48;35.21
72024;BME280;59889;50.700;5.440;2024-02-23T04:01:00;97687.57;;;20.59;35.36
72024;BME280;59889;50.700;5.440;2024-02-23T04:03:25;97689.84;;;20.36;35.36
72024;BME280;59889;50.700;5.440;2024-02-23T04:05:50;97691.95;;;20.45;35.24
72024;BME280;59889;50.700;5.440;2024-02-23T04:08:15;97695.58;;;20.44;35.26
72024;BME280;59889;50.700;5.440;2024-02-23T04:10:40;97696.28;;;20.44;35.25
72024;BME280;59889;50.700;5.440;2024-02-23T04:13:05;97697.37;;;20.41;35.31
72024;BME280;59889;50.700;5.440;2024-02-23T04:15:30;97701.28;;;20.39;35.33
72024;BME280;59889;50.700;5.440;2024-02-23T04:17:56;97697.43;;;20.42;35.29
72024;BME280;59889;50.700;5.440;2024-02-23T04:20:20;97699.35;;;20.43;35.27
72024;BME280;59889;50.700;5.440;2024-02-23T04:22:45;97703.37;;;20.73;35.18
72024;BME280;59889;50.700;5.440;2024-02-23T04:25:10;97708.17;;;20.47;35.20
72024;BME280;59889;50.700;5.440;2024-02-23T04:27:35;97704.78;;;20.47;35.20
72024;BME280;59889;50.700;5.440;2024-02-23T04:30:00;97703.21;;;20.48;35.20
72024;BME280;59889;50.700;5.440;2024-02-23T04:32:25;97701.61;;;20.35;35.34
72024;BME280;59889;50.700;5.440;2024-02-23T04:34:50;97699.81;;;20.38;35.29
72024;BME280;59889;50.700;5.440;2024-02-23T04:37:15;97700.90;;;20.62;35.31
72024;BME280;59889;50.700;5.440;2024-02-23T04:39:43;97697.66;;;20.51;35.14
72024;BME280;59889;50.700;5.440;2024-02-23T04:42:05;97694.63;;;20.64;35.27
72024;BME280;59889;50.700;5.440;2024-02-23T04:44:30;97693.14;;;20.45;35.22
72024;BME280;59889;50.700;5.440;2024-02-23T04:46:55;97699.09;;;20.60;35.32
72024;BME280;59889;50.700;5.440;2024-02-23T04:49:20;97695.43;;;20.71;35.20
72024;BME280;59889;50.700;5.440;2024-02-23T04:51:46;97698.80;;;20.44;35.22
72024;BME280;59889;50.700;5.440;2024-02-23T04:54:11;97694.30;;;20.39;35.28
72024;BME280;59889;50.700;5.440;2024-02-23T04:56:36;97697.79;;;20.54;35.35
72024;BME280;59889;50.700;5.440;2024-02-23T04:59:00;97699.59;;;20.61;35.28
72024;BME280;59889;50.700;5.440;2024-02-23T05:01:26;97698.57;;;20.59;35.31
72024;BME280;59889;50.700;5.440;2024-02-23T05:03:51;97699.44;;;20.43;35.21
72024;BME280;59889;50.700;5.440;2024-02-23T05:06:16;97702.89;;;20.84;35.31
72024;BME280;59889;50.700;5.440;2024-02-23T05:08:41;97701.41;;;20.59;35.34
72024;BME280;59889;50.700;5.440;2024-02-23T05:11:06;97699.32;;;20.31;35.35
72024;BME280;59889;50.700;5.440;2024-02-23T05:13:31;97700.00;;;20.54;35.37
72024;BME280;59889;50.700;5.440;2024-02-23T05:15:56;97697.17;;;20.37;35.29
72024;BME280;59889;50.700;5.440;2024-02-23T05:18:21;97693.26;;;20.38;35.27
72024;BME280;59889;50.700;5.440;2024-02-23T05:20:46;97688.60;;;20.91;35.21
72024;BME280;59889;50.700;5.440;2024-02-23T05:23:12;97683.90;;;20.42;35.20
72024;BME280;59889;50.700;5.440;2024-02-23T05:25:37;97687.49;;;20.71;35.17
72024;BME280;59889;50.700;5.440;2024-02-23T05:28:01;97683.24;;;20.93;35.17
72024;BME280;59889;50.700;5.440;2024-02-23T05:30:26;97679.90;;;20.45;35.18
72024;BME280;59889;50.700;5.440;2024-02-23T05:32:51;97681.13;;;20.44;35.19
72024;BME280;59889;50.700;5.440;2024-02-23T05:35:17;97679.48;;;20.67;35.21
72024;BME280;59889;50.700;5.440;2024-02-23T05:37:41;97674.28;;;20.49;35.14
72024;BME280;59889;50.700;5.440;2024-02-23T05:40:07;97672.95;;;20.48;35.14
72024;BME280;59889;50.700;5.440;2024-02-23T05:42:31;97675.91;;;20.46;35.17
72024;BME280;59889;50.700;5.440;2024-02-23T05:44:57;97678.12;;;20.70;35.16
72024;BME280;59889;50.700;5.440;2024-02-23T05:47:21;97678.42;;;20.69;35.17
72024;BME280;59889;50.700;5.440;2024-02-23T05:49:46;97679.59;;;20.72;35.12
72024;BME280;59889;50.700;5.440;2024-02-23T05:52:12;97685.55;;;20.59;35.29
72024;BME280;59889;50.700;5.440;2024-02-23T05:54:36;97690.75;;;20.70;35.16
72024;BME280;59889;50.700;5.440;2024-02-23T05:57:03;97687.51;;;20.60;35.17
72024;BME280;59889;50.700;5.440;2024-02-23T05:59:26;97691.24;;;20.34;34.89
72024;BME280;59889;50.700;5.440;2024-02-23T06:01:51;97691.29;;;20.28;34.37
72024;BME280;59889;50.700;5.440;2024-02-23T06:04:16;97697.97;;;20.39;34.24
72024;BME280;59889;50.700;5.440;2024-02-23T06:06:41;97698.51;;;20.16;33.89
72024;BME280;59889;50.700;5.440;2024-02-23T06:09:06;97694.50;;;20.31;33.64
72024;BME280;59889;50.700;5.440;2024-02-23T06:11:32;97698.27;;;20.52;33.43
72024;BME280;59889;50.700;5.440;2024-02-23T06:13:56;97689.86;;;20.04;33.28
72024;BME280;59889;50.700;5.440;2024-02-23T06:16:22;97682.15;;;20.01;33.09
72024;BME280;59889;50.700;5.440;2024-02-23T06:18:48;97679.43;;;20.02;32.87
72024;BME280;59889;50.700;5.440;2024-02-23T06:21:13;97671.84;;;20.20;32.86
72024;BME280;59889;50.700;5.440;2024-02-23T06:23:37;97671.18;;;20.44;32.64
72024;BME280;59889;50.700;5.440;2024-02-23T06:26:02;97672.21;;;20.21;32.44
72024;BME280;59889;50.700;5.440;2024-02-23T06:28:27;97671.44;;;20.18;32.41
72024;BME280;59889;50.700;5.440;2024-02-23T06:30:52;97667.95;;;20.39;32.45
72024;BME280;59889;50.700;5.440;2024-02-23T06:33:17;97657.59;;;20.09;32.37
72024;BME280;59889;50.700;5.440;2024-02-23T06:35:42;97661.55;;;20.28;32.29
72024;BME280;59889;50.700;5.440;2024-02-23T06:38:07;97659.65;;;20.35;32.28
72024;BME280;59889;50.700;5.440;2024-02-23T06:40:32;97655.63;;;20.36;32.20
72024;BME280;59889;50.700;5.440;2024-02-23T06:42:57;97653.64;;;20.31;32.11
72024;BME280;59889;50.700;5.440;2024-02-23T06:45:22;97656.31;;;20.27;32.06
72024;BME280;59889;50.700;5.440;2024-02-23T06:47:47;97660.23;;;20.18;32.02
72024;BME280;59889;50.700;5.440;2024-02-23T06:50:12;97651.82;;;20.23;31.94
72024;BME280;59889;50.700;5.440;2024-02-23T06:52:37;97649.65;;;19.97;31.94
72024;BME280;59889;50.700;5.440;2024-02-23T06:55:03;97649.25;;;20.27;31.90
72024;BME280;59889;50.700;5.440;2024-02-23T06:57:27;97651.27;;;20.33;32.03
72024;BME280;59889;50.700;5.440;2024-02-23T06:59:54;97652.04;;;20.35;32.25
72024;BME280;59889;50.700;5.440;2024-02-23T07:02:18;97650.57;;;20.11;32.59
72024;BME280;59889;50.700;5.440;2024-02-23T07:04:43;97644.57;;;20.04;33.10
72024;BME280;59889;50.700;5.440;2024-02-23T07:07:08;97648.44;;;20.64;33.09
72024;BME280;59889;50.700;5.440;2024-02-23T07:09:33;97653.32;;;20.48;33.16
72024;BME280;59889;50.700;5.440;2024-02-23T07:11:58;97656.46;;;20.45;33.40
72024;BME280;59889;50.700;5.440;2024-02-23T07:14:23;97652.44;;;20.49;33.55
72024;BME280;59889;50.700;5.440;2024-02-23T07:16:48;97651.99;;;20.06;33.84
72024;BME280;59889;50.700;5.440;2024-02-23T07:19:13;97652.25;;;20.44;33.63
72024;BME280;59889;50.700;5.440;2024-02-23T07:21:38;97651.99;;;20.06;33.75
72024;BME280;59889;50.700;5.440;2024-02-23T07:24:05;97658.44;;;20.40;33.70
72024;BME280;59889;50.700;5.440;2024-02-23T07:26:28;97659.45;;;20.51;33.51
72024;BME280;59889;50.700;5.440;2024-02-23T07:28:53;97660.83;;;20.74;33.31
72024;BME280;59889;50.700;5.440;2024-02-23T07:31:18;97650.78;;;20.56;33.03
72024;BME280;59889;50.700;5.440;2024-02-23T07:33:43;97652.69;;;20.73;33.04
72024;BME280;59889;50.700;5.440;2024-02-23T07:36:14;97643.16;;;20.27;33.19
72024;BME280;59889;50.700;5.440;2024-02-23T07:38:34;97634.13;;;20.18;33.25
72024;BME280;59889;50.700;5.440;2024-02-23T07:40:59;97640.91;;;20.31;33.28
72024;BME280;59889;50.700;5.440;2024-02-23T07:43:24;97639.78;;;20.20;33.29
72024;BME280;59889;50.700;5.440;2024-02-23T07:45:49;97641.86;;;19.92;33.45
72024;BME280;59889;50.700;5.440;2024-02-23T07:48:14;97647.48;;;20.13;33.60
72024;BME280;59889;50.700;5.440;2024-02-23T07:50:39;97643.97;;;20.34;33.69
72024;BME280;59889;50.700;5.440;2024-02-23T07:53:04;97643.30;;;19.68;33.86
72024;BME280;59889;50.700;5.440;2024-02-23T07:55:30;97644.55;;;20.24;33.77
72024;BME280;59889;50.700;5.440;2024-02-23T07:57:54;97640.22;;;19.96;33.79
72024;BME280;59889;50.700;5.440;2024-02-23T08:00:20;97638.63;;;20.13;33.77
72024;BME280;59889;50.700;5.440;2024-02-23T08:02:46;97642.75;;;19.88;33.78
72024;BME280;59889;50.700;5.440;2024-02-23T08:05:11;97652.68;;;20.18;33.67
72024;BME280;59889;50.700;5.440;2024-02-23T08:07:36;97655.38;;;20.00;33.54
72024;BME280;59889;50.700;5.440;2024-02-23T08:10:01;97656.66;;;20.25;33.48
72024;BME280;59889;50.700;5.440;2024-02-23T08:12:28;97652.13;;;20.25;33.41
72024;BME280;59889;50.700;5.440;2024-02-23T08:14:52;97646.12;;;20.19;33.42
72024;BME280;59889;50.700;5.440;2024-02-23T08:17:18;97643.76;;;19.77;33.32
72024;BME280;59889;50.700;5.440;2024-02-23T08:19:44;97646.54;;;19.96;33.24
72024;BME280;59889;50.700;5.440;2024-02-23T08:22:09;97642.62;;;19.98;32.34
72024;BME280;59889;50.700;5.440;2024-02-23T08:24:34;97645.55;;;20.10;32.49
72024;BME280;59889;50.700;5.440;2024-02-23T08:27:00;97646.39;;;20.16;32.61
72024;BME280;59889;50.700;5.440;2024-02-23T08:29:25;97646.58;;;20.13;32.72
72024;BME280;59889;50.700;5.440;2024-02-23T08:31:50;97642.63;;;19.69;32.70
72024;BME280;59889;50.700;5.440;2024-02-23T08:34:16;97643.85;;;19.60;32.71
72024;BME280;59889;50.700;5.440;2024-02-23T08:36:42;97643.31;;;19.89;32.61
72024;BME280;59889;50.700;5.440;2024-02-23T08:39:07;97640.00;;;20.06;32.71
72024;BME280;59889;50.700;5.440;2024-02-23T08:41:32;97632.84;;;20.10;32.68
72024;BME280;59889;50.700;5.440;2024-02-23T08:43:58;97636.11;;;19.93;32.60
72024;BME280;59889;50.700;5.440;2024-02-23T08:46:23;97636.96;;;20.31;32.49
72024;BME280;59889;50.700;5.440;2024-02-23T08:48:48;97637.48;;;19.90;32.37
72024;BME280;59889;50.700;5.440;2024-02-23T08:51:14;97646.03;;;20.41;32.29
72024;BME280;59889;50.700;5.440;2024-02-23T08:53:39;97649.39;;;20.38;32.27
72024;BME280;59889;50.700;5.440;2024-02-23T08:56:06;97657.51;;;20.35;32.28
72024;BME280;59889;50.700;5.440;2024-02-23T08:58:29;97656.66;;;20.37;32.26
72024;BME280;59889;50.700;5.440;2024-02-23T09:00:54;97656.54;;;20.07;32.33
72024;BME280;59889;50.700;5.440;2024-02-23T09:03:20;97650.77;;;20.24;32.44
72024;BME280;59889;50.700;5.440;2024-02-23T09:05:44;97653.43;;;20.23;32.45
72024;BME280;59889;50.700;5.440;2024-02-23T09:08:10;97651.59;;;20.23;32.37
72024;BME280;59889;50.700;5.440;2024-02-23T09:10:34;97647.19;;;20.25;32.30
72024;BME280;59889;50.700;5.440;2024-02-23T09:12:59;97648.79;;;19.97;32.30
72024;BME280;59889;50.700;5.440;2024-02-23T09:15:24;97637.74;;;20.23;32.31
72024;BME280;59889;50.700;5.440;2024-02-23T09:17:50;97634.11;;;19.95;32.36
72024;BME280;59889;50.700;5.440;2024-02-23T09:20:15;97638.08;;;20.02;32.33
72024;BME280;59889;50.700;5.440;2024-02-23T09:22:40;97634.51;;;20.25;32.48
72024;BME280;59889;50.700;5.440;2024-02-23T09:25:06;97634.72;;;20.36;32.40
72024;BME280;59889;50.700;5.440;2024-02-23T09:27:32;97627.54;;;20.33;32.53
72024;BME280;59889;50.700;5.440;2024-02-23T09:29:56;97632.54;;;20.33;32.66
72024;BME280;59889;50.700;5.440;2024-02-23T09:32:21;97637.71;;;20.00;32.86
72024;BME280;59889;50.700;5.440;2024-02-23T09:34:46;97636.15;;;20.00;32.92
72024;BME280;59889;50.700;5.440;2024-02-23T09:37:11;97647.02;;;20.26;32.94
72024;BME280;59889;50.700;5.440;2024-02-23T09:39:36;97645.33;;;20.05;32.94
72024;BME280;59889;50.700;5.440;2024-02-23T09:42:02;97645.91;;;20.26;32.98
72024;BME280;59889;50.700;5.440;2024-02-23T09:44:32;97653.31;;;20.25;33.00
72024;BME280;59889;50.700;5.440;2024-02-23T09:46:52;97653.24;;;20.26;33.03
72024;BME280;59889;50.700;5.440;2024-02-23T09:49:17;97645.60;;;20.29;33.04
72024;BME280;59889;50.700;5.440;2024-02-23T09:51:42;97642.95;;;20.25;33.13
72024;BME280;59889;50.700;5.440;2024-02-23T09:54:07;97646.62;;;20.24;33.19
72024;BME280;59889;50.700;5.440;2024-02-23T09:56:33;97648.26;;;20.04;33.20
72024;BME280;59889;50.700;5.440;2024-02-23T09:59:01;97654.55;;;20.27;33.24
72024;BME280;59889;50.700;5.440;2024-02-23T10:01:27;97654.91;;;20.03;33.26
72024;BME280;59889;50.700;5.440;2024-02-23T10:03:50;97651.96;;;20.04;33.28
72024;BME280;59889;50.700;5.440;2024-02-23T10:06:14;97656.72;;;20.24;33.32
72024;BME280;59889;50.700;5.440;2024-02-23T10:08:39;97657.23;;;20.01;33.30
72024;BME280;59889;50.700;5.440;2024-02-23T10:11:03;97657.27;;;20.02;33.31
72024;BME280;59889;50.700;5.440;2024-02-23T10:13:29;97659.56;;;20.02;33.33
72024;BME280;59889;50.700;5.440;2024-02-23T10:15:53;97665.58;;;20.31;33.27
72024;BME280;59889;50.700;5.440;2024-02-23T10:18:19;97672.27;;;20.34;33.23
72024;BME280;59889;50.700;5.440;2024-02-23T10:20:45;97669.30;;;20.24;33.36
72024;BME280;59889;50.700;5.440;2024-02-23T10:23:10;97674.05;;;19.93;33.42
72024;BME280;59889;50.700;5.440;2024-02-23T10:25:35;97682.36;;;19.98;33.38
72024;BME280;59889;50.700;5.440;2024-02-23T10:28:01;97688.21;;;19.97;33.39
72024;BME280;59889;50.700;5.440;2024-02-23T10:30:26;97688.83;;;20.20;33.37
72024;BME280;59889;50.700;5.440;2024-02-23T10:32:55;97684.35;;;20.18;33.39
72024;BME280;59889;50.700;5.440;2024-02-23T10:35:16;97692.63;;;19.98;33.38
72024;BME280;59889;50.700;5.440;2024-02-23T10:37:42;97692.46;;;20.18;33.42
72024;BME280;59889;50.700;5.440;2024-02-23T10:40:06;97696.10;;;20.19;33.46
72024;BME280;59889;50.700;5.440;2024-02-23T10:42:34;97697.42;;;20.15;33.50
72024;BME280;59889;50.700;5.440;2024-02-23T10:44:58;97701.09;;;20.22;33.44
72024;BME280;59889;50.700;5.440;2024-02-23T10:47:21;97701.20;;;20.20;33.47
72024;BME280;59889;50.700;5.440;2024-02-23T10:49:46;97699.40;;;20.22;33.45
72024;BME280;59889;50.700;5.440;2024-02-23T10:52:12;97704.06;;;20.13;33.52
72024;BME280;59889;50.700;5.440;2024-02-23T10:54:36;97714.04;;;20.12;33.52
72024;BME280;59889;50.700;5.440;2024-02-23T10:57:02;97711.74;;;20.17;33.43
72024;BME280;59889;50.700;5.440;2024-02-23T10:59:26;97721.66;;;20.37;33.52
72024;BME280;59889;50.700;5.440;2024-02-23T11:01:53;97720.96;;;20.11;33.53
72024;BME280;59889;50.700;5.440;2024-02-23T11:04:16;97720.46;;;19.90;33.50
72024;BME280;59889;50.700;5.440;2024-02-23T11:06:42;97724.07;;;20.09;33.57
72024;BME280;59889;50.700;5.440;2024-02-23T11:09:06;97727.32;;;20.11;33.55
72024;BME280;59889;50.700;5.440;2024-02-23T11:11:32;97728.47;;;20.03;33.66
72024;BME280;59889;50.700;5.440;2024-02-23T11:13:57;97735.70;;;20.07;33.60
72024;BME280;59889;50.700;5.440;2024-02-23T11:16:22;97733.26;;;19.61;33.58
72024;BME280;59889;50.700;5.440;2024-02-23T11:18:46;97732.34;;;20.09;33.56
72024;BME280;59889;50.700;5.440;2024-02-23T11:21:11;97732.70;;;20.11;33.55
72024;BME280;59889;50.700;5.440;2024-02-23T11:23:40;97727.14;;;20.06;33.61
72024;BME280;59889;50.700;5.440;2024-02-23T11:26:05;97727.68;;;20.11;33.57
72024;BME280;59889;50.700;5.440;2024-02-23T11:28:26;97732.80;;;20.13;33.56
72024;BME280;59889;50.700;5.440;2024-02-23T11:30:53;97734.49;;;20.09;33.58
72024;BME280;59889;50.700;5.440;2024-02-23T11:33:25;97732.02;;;20.10;33.60
72024;BME280;59889;50.700;5.440;2024-02-23T11:35:46;97729.38;;;19.89;33.57
72024;BME280;59889;50.700;5.440;2024-02-23T11:38:08;97730.87;;;19.97;33.80
72024;BME280;59889;50.700;5.440;2024-02-23T11:40:32;97731.96;;;19.94;33.60
72024;BME280;59889;50.700;5.440;2024-02-23T11:42:57;97730.24;;;19.98;33.57
72024;BME280;59889;50.700;5.440;2024-02-23T11:45:22;97733.57;;;20.28;33.53
72024;BME280;59889;50.700;5.440;2024-02-23T11:47:47;97729.01;;;20.07;33.51
72024;BME280;59889;50.700;5.440;2024-02-23T11:50:14;97727.89;;;20.18;33.40
72024;BME280;59889;50.700;5.440;2024-02-23T11:52:37;97727.34;;;20.40;33.43
72024;BME280;59889;50.700;5.440;2024-02-23T11:55:02;97728.06;;;20.39;33.46
72024;BME280;59889;50.700;5.440;2024-02-23T11:57:27;97725.82;;;20.43;33.44
72024;BME280;59889;50.700;5.440;2024-02-23T11:59:52;97722.00;;;20.45;33.43
72024;BME280;59889;50.700;5.440;2024-02-23T12:02:17;97719.02;;;20.22;33.43
72024;BME280;59889;50.700;5.440;2024-02-23T12:04:42;97714.61;;;20.15;33.52
72024;BME280;59889;50.700;5.440;2024-02-23T12:07:08;97711.46;;;20.09;33.64
72024;BME280;59889;50.700;5.440;2024-02-23T12:09:32;97716.47;;;20.09;33.65
72024;BME280;59889;50.700;5.440;2024-02-23T12:11:57;97709.60;;;20.12;33.63
72024;BME280;59889;50.700;5.440;2024-02-23T12:14:22;97718.26;;;20.14;33.62
72024;BME280;59889;50.700;5.440;2024-02-23T12:16:48;97720.92;;;20.14;33.63
72024;BME280;59889;50.700;5.440;2024-02-23T12:19:12;97716.93;;;20.37;33.65
72024;BME280;59889;50.700;5.440;2024-02-23T12:21:38;97715.17;;;20.36;33.67
72024;BME280;59889;50.700;5.440;2024-02-23T12:24:04;97713.87;;;20.12;33.68
72024;BME280;59889;50.700;5.440;2024-02-23T12:26:27;97714.29;;;19.94;33.63
72024;BME280;59889;50.700;5.440;2024-02-23T12:29:00;97707.06;;;20.10;33.72
72024;BME280;59889;50.700;5.440;2024-02-23T12:31:23;97707.52;;;20.34;33.73
72024;BME280;59889;50.700;5.440;2024-02-23T12:33:43;97707.97;;;20.17;33.67
72024;BME280;59889;50.700;5.440;2024-02-23T12:36:08;97711.01;;;20.16;33.70
72024;BME280;59889;50.700;5.440;2024-02-23T12:38:33;97711.22;;;20.37;33.74
72024;BME280;59889;50.700;5.440;2024-02-23T12:40:59;97711.09;;;20.44;33.67
72024;BME280;59889;50.700;5.440;2024-02-23T12:43:24;97718.96;;;20.26;33.62
72024;BME280;59889;50.700;5.440;2024-02-23T12:45:48;97706.71;;;20.01;33.62
72024;BME280;59889;50.700;5.440;2024-02-23T12:48:13;97703.98;;;20.25;33.64